createdAt,value
2018-09-01T00:01:42.285Z,4.47
2018-09-01T00:04:10.054Z,6.83
2018-09-01T00:06:37.749Z,6.85
2018-09-01T00:09:05.957Z,14.23
2018-09-01T00:11:33.655Z,5.65
2018-09-01T00:14:01.382Z,4.10
2018-09-01T00:16:29.090Z,10.17
2018-09-01T00:18:56.732Z,12.63
2018-09-01T00:21:24.675Z,8.00
2018-09-01T00:23:53.118Z,10.83
2018-09-01T00:26:20.877Z,5.62
2018-09-01T00:28:48.717Z,4.63
2018-09-01T00:31:16.356Z,4.60
2018-09-01T00:33:44.144Z,10.10
2018-09-01T00:36:11.861Z,8.60
2018-09-01T00:38:45.234Z,6.15
2018-09-01T00:41:12.993Z,2.47
2018-09-01T00:43:40.756Z,6.77
2018-09-01T00:46:08.418Z,6.83
2018-09-01T00:48:36.032Z,9.20
2018-09-01T00:51:03.854Z,9.07
2018-09-01T00:53:31.547Z,6.83
2018-09-01T00:55:59.193Z,8.13
2018-09-01T00:58:26.840Z,4.62
2018-09-01T01:00:54.547Z,3.90
2018-09-01T01:03:22.274Z,7.50
2018-09-01T01:05:49.922Z,3.77
2018-09-01T01:08:17.733Z,7.67
2018-09-01T01:10:45.411Z,6.00
2018-09-01T01:13:13.017Z,11.57
2018-09-01T01:15:40.771Z,6.27
2018-09-01T01:18:08.363Z,6.30
2018-09-01T01:20:36.133Z,13.47
2018-09-01T01:23:03.836Z,5.00
2018-09-01T01:25:31.445Z,5.30
2018-09-01T01:27:59.115Z,11.27
2018-09-01T01:30:26.751Z,5.90
2018-09-01T01:32:54.414Z,4.87
2018-09-01T01:35:22.045Z,8.65
2018-09-01T01:37:49.772Z,5.50
2018-09-01T01:40:17.448Z,4.17
2018-09-01T01:42:45.159Z,5.80
2018-09-01T01:45:12.817Z,8.47
2018-09-01T01:47:41.308Z,7.50
2018-09-01T01:50:10.173Z,8.58
2018-09-01T01:52:37.815Z,13.30
2018-09-01T01:55:05.553Z,15.05
2018-09-01T01:57:37.797Z,7.60
2018-09-01T02:00:05.913Z,5.63
2018-09-01T02:02:33.571Z,4.40
2018-09-01T02:05:01.235Z,4.85
2018-09-01T02:07:28.976Z,6.37
2018-09-01T02:09:56.721Z,8.77
2018-09-01T02:12:24.491Z,8.73
2018-09-01T02:14:52.178Z,12.33
2018-09-01T02:17:19.858Z,7.40
2018-09-01T02:19:47.582Z,13.72
2018-09-01T02:22:15.325Z,7.37
2018-09-01T02:24:43.179Z,6.43
2018-09-01T02:27:10.836Z,4.67
2018-09-01T02:29:38.436Z,5.43
2018-09-01T02:32:06.192Z,6.92
2018-09-01T02:34:33.860Z,6.17
2018-09-01T02:37:01.543Z,6.40
2018-09-01T02:39:29.233Z,7.20
2018-09-01T02:41:57.130Z,7.07
2018-09-01T02:44:24.726Z,3.90
2018-09-01T02:46:52.366Z,6.90
2018-09-01T02:49:20.026Z,12.35
2018-09-01T02:51:47.629Z,11.85
2018-09-01T02:54:15.211Z,9.13
2018-09-01T02:56:42.901Z,8.43
2018-09-01T02:59:10.772Z,9.65
2018-09-01T03:01:38.495Z,10.60
2018-09-01T03:04:07.109Z,7.37
2018-09-01T03:06:49.173Z,13.37
2018-09-01T03:09:16.809Z,12.87
2018-09-01T03:11:44.438Z,10.25
2018-09-01T03:14:12.101Z,9.80
2018-09-01T03:16:39.837Z,6.90
2018-09-01T03:19:08.109Z,9.30
2018-09-01T03:21:36.025Z,6.90
2018-09-01T03:24:03.781Z,10.60
2018-09-01T03:26:31.561Z,6.73
2018-09-01T03:28:59.239Z,9.90
2018-09-01T03:31:26.899Z,6.43
2018-09-01T03:33:54.837Z,7.22
2018-09-01T03:36:22.501Z,5.00
2018-09-01T03:38:50.176Z,8.85
2018-09-01T03:41:17.851Z,12.87
2018-09-01T03:43:45.585Z,12.67
2018-09-01T03:46:13.289Z,6.23
2018-09-01T03:48:41.231Z,6.40
2018-09-01T03:51:08.868Z,3.93
2018-09-01T03:56:15.682Z,7.80
2018-09-01T03:58:43.352Z,6.40
2018-09-01T04:01:10.999Z,12.47
2018-09-01T04:03:38.606Z,4.47
2018-09-01T04:06:06.215Z,7.60
2018-09-01T04:08:33.829Z,6.87
2018-09-01T04:11:01.466Z,7.25
2018-09-01T04:13:29.104Z,9.60
2018-09-01T04:15:56.718Z,9.53
2018-09-01T04:18:24.376Z,5.30
2018-09-01T04:20:52.150Z,6.37
2018-09-01T04:23:19.791Z,10.75
2018-09-01T04:25:47.491Z,6.33
2018-09-01T04:28:15.098Z,6.50
2018-09-01T04:30:42.778Z,8.40
2018-09-01T04:33:10.428Z,6.70
2018-09-01T04:35:38.201Z,13.93
2018-09-01T04:38:05.907Z,15.93
2018-09-01T04:40:33.541Z,6.97
2018-09-01T04:43:01.183Z,6.35
2018-09-01T04:45:28.825Z,10.53
2018-09-01T04:47:56.460Z,7.20
2018-09-01T04:50:24.211Z,4.50
2018-09-01T04:52:51.910Z,7.63
2018-09-01T04:55:19.591Z,5.00
2018-09-01T04:57:47.341Z,10.20
2018-09-01T05:00:22.220Z,5.47
2018-09-01T05:02:51.196Z,7.43
2018-09-01T05:05:18.918Z,9.73
2018-09-01T05:07:46.904Z,8.17
2018-09-01T05:10:14.694Z,9.97
2018-09-01T05:12:42.324Z,11.27
2018-09-01T05:15:10.115Z,10.08
2018-09-01T05:17:37.860Z,6.97
2018-09-01T05:20:05.884Z,11.68
2018-09-01T05:22:33.620Z,5.42
2018-09-01T05:25:01.351Z,15.23
2018-09-01T05:27:29.138Z,4.43
2018-09-01T05:29:56.848Z,11.13
2018-09-01T05:32:24.686Z,6.37
2018-09-01T05:34:52.301Z,13.60
2018-09-01T05:37:19.947Z,8.83
2018-09-01T05:39:47.618Z,7.33
2018-09-01T05:42:15.323Z,11.20
2018-09-01T05:44:42.998Z,8.87
2018-09-01T05:47:10.648Z,7.03
2018-09-01T05:49:38.277Z,5.13
2018-09-01T05:52:06.086Z,7.12
2018-09-01T05:54:33.863Z,8.50
2018-09-01T05:57:01.687Z,7.13
2018-09-01T05:59:29.401Z,6.60
2018-09-01T06:01:57.100Z,6.67
2018-09-01T06:04:24.815Z,5.58
2018-09-01T06:06:52.469Z,11.50
2018-09-01T06:09:20.115Z,10.00
2018-09-01T06:11:48.239Z,7.40
2018-09-01T06:14:15.813Z,7.80
2018-09-01T06:16:43.471Z,14.77
2018-09-01T06:19:11.167Z,12.37
2018-09-01T06:21:38.776Z,6.95
2018-09-01T06:24:06.902Z,7.40
2018-09-01T06:26:34.542Z,10.08
2018-09-01T06:29:06.883Z,5.17
2018-09-01T06:31:34.525Z,10.03
2018-09-01T06:34:02.162Z,10.85
2018-09-01T06:36:29.739Z,7.78
2018-09-01T06:38:57.383Z,11.47
2018-09-01T06:41:25.073Z,8.93
2018-09-01T06:43:52.669Z,5.30
2018-09-01T06:46:20.431Z,6.08
2018-09-01T06:48:48.092Z,10.70
2018-09-01T06:51:15.760Z,10.37
2018-09-01T06:53:43.451Z,7.73
2018-09-01T06:56:11.119Z,7.10
2018-09-01T06:58:38.770Z,10.65
2018-09-01T07:01:06.601Z,4.67
2018-09-01T07:03:34.204Z,10.63
2018-09-01T07:06:01.870Z,11.65
2018-09-01T07:08:29.473Z,7.85
2018-09-01T07:10:57.702Z,11.23
2018-09-01T07:13:25.403Z,9.00
2018-09-01T07:15:53.226Z,9.27
2018-09-01T07:18:20.892Z,6.73
2018-09-01T07:20:48.558Z,7.80
2018-09-01T07:23:16.219Z,15.47
2018-09-01T07:25:43.917Z,4.75
2018-09-01T07:28:11.598Z,15.58
2018-09-01T07:30:39.364Z,10.07
2018-09-01T07:33:07.042Z,9.17
2018-09-01T07:35:34.713Z,8.83
2018-09-01T07:38:02.410Z,11.60
2018-09-01T07:40:30.164Z,8.75
2018-09-01T07:42:57.805Z,12.23
2018-09-01T07:45:25.460Z,7.33
2018-09-01T07:47:53.191Z,7.10
2018-09-01T07:50:20.839Z,9.97
2018-09-01T07:52:48.518Z,11.57
2018-09-01T07:55:16.184Z,11.60
2018-09-01T07:57:43.847Z,12.23
2018-09-01T08:00:11.625Z,9.98
2018-09-01T08:02:39.293Z,10.00
2018-09-01T08:05:07.195Z,6.77
2018-09-01T08:07:35.017Z,13.70
2018-09-01T08:10:02.672Z,8.90
2018-09-01T08:12:30.456Z,5.77
2018-09-01T08:14:58.147Z,11.87
2018-09-01T08:17:26.003Z,16.23
2018-09-01T08:19:54.259Z,10.70
2018-09-01T08:22:21.958Z,9.97
2018-09-01T08:24:49.668Z,7.37
2018-09-01T08:27:17.509Z,9.00
2018-09-01T08:29:45.331Z,10.75
2018-09-01T08:32:12.983Z,7.58
2018-09-01T08:34:40.906Z,8.23
2018-09-01T08:37:08.548Z,9.60
2018-09-01T08:39:36.159Z,7.33
2018-09-01T08:42:03.812Z,11.77
2018-09-01T08:44:31.413Z,11.85
2018-09-01T08:46:58.992Z,8.63
2018-09-01T08:49:26.731Z,8.20
2018-09-01T08:51:54.560Z,7.20
2018-09-01T08:54:22.239Z,7.50
2018-09-01T08:56:50.005Z,4.40
2018-09-01T08:59:17.625Z,12.10
2018-09-01T09:01:45.273Z,9.80
2018-09-01T09:04:13.008Z,14.70
2018-09-01T09:06:40.669Z,17.10
2018-09-01T09:09:08.309Z,7.77
2018-09-01T09:11:36.062Z,7.30
2018-09-01T09:14:03.728Z,9.77
2018-09-01T09:16:31.369Z,7.70
2018-09-01T09:18:59.056Z,8.28
2018-09-01T09:21:26.744Z,9.70
2018-09-01T09:23:54.397Z,9.73
2018-09-01T09:26:22.060Z,10.60
2018-09-01T09:28:49.740Z,7.47
2018-09-01T09:31:17.424Z,12.27
2018-09-01T09:33:45.046Z,13.50
2018-09-01T09:36:12.668Z,6.83
2018-09-01T09:38:40.266Z,14.45
2018-09-01T09:41:07.950Z,11.70
2018-09-01T09:43:35.597Z,13.50
2018-09-01T09:46:03.284Z,6.43
2018-09-01T09:48:30.886Z,11.10
2018-09-01T09:50:58.529Z,8.10
2018-09-01T09:53:26.128Z,9.70
2018-09-01T09:55:53.747Z,8.57
2018-09-01T09:58:21.392Z,10.30
2018-09-01T10:00:54.854Z,12.60
2018-09-01T10:03:22.544Z,10.60
2018-09-01T10:05:50.179Z,7.67
2018-09-01T10:08:17.839Z,10.38
2018-09-01T10:10:45.506Z,5.53
2018-09-01T10:13:13.192Z,15.63
2018-09-01T10:15:40.867Z,12.50
2018-09-01T10:18:08.511Z,10.33
2018-09-01T10:20:36.182Z,9.35
2018-09-01T10:23:03.922Z,11.07
2018-09-01T10:25:31.622Z,7.53
2018-09-01T10:28:00.265Z,7.07
2018-09-01T10:30:28.030Z,11.13
2018-09-01T10:32:55.666Z,8.87
2018-09-01T10:35:23.302Z,8.30
2018-09-01T10:37:50.914Z,9.90
2018-09-01T10:40:18.778Z,6.33
2018-09-01T10:42:46.463Z,19.83
2018-09-01T10:45:14.074Z,6.93
2018-09-01T10:47:41.793Z,12.10
2018-09-01T10:50:09.470Z,5.43
2018-09-01T10:52:37.158Z,9.00
2018-09-01T10:55:05.011Z,10.35
2018-09-01T10:57:32.667Z,8.60
2018-09-01T11:00:00.319Z,16.23
2018-09-01T11:02:27.958Z,9.80
2018-09-01T11:04:55.591Z,13.13
2018-09-01T11:07:23.579Z,5.45
2018-09-01T11:09:51.213Z,8.70
2018-09-01T11:12:19.343Z,11.03
2018-09-01T11:14:46.989Z,16.47
2018-09-01T11:17:14.848Z,9.40
2018-09-01T11:19:42.609Z,16.87
2018-09-01T11:22:10.382Z,8.90
2018-09-01T11:24:38.063Z,4.83
2018-09-01T11:27:05.687Z,6.10
2018-09-01T11:29:33.389Z,8.53
2018-09-01T11:32:01.184Z,9.00
2018-09-01T11:34:28.810Z,11.97
2018-09-01T11:36:56.553Z,10.40
2018-09-01T11:39:24.159Z,8.07
2018-09-01T11:41:51.838Z,9.38
2018-09-01T11:44:19.435Z,11.93
2018-09-01T11:46:47.056Z,7.67
2018-09-01T11:49:14.789Z,12.17
2018-09-01T11:51:42.424Z,7.65
2018-09-01T11:54:10.071Z,12.43
2018-09-01T11:56:37.910Z,8.63
2018-09-01T11:59:06.061Z,11.60
2018-09-01T12:01:33.763Z,9.40
2018-09-01T12:04:01.462Z,9.20
2018-09-01T12:06:29.115Z,12.17
2018-09-01T12:08:56.909Z,13.50
2018-09-01T12:11:25.294Z,11.23
2018-09-01T12:13:53.024Z,8.00
2018-09-01T12:16:20.679Z,8.33
2018-09-01T12:18:48.392Z,7.30
2018-09-01T12:21:16.009Z,9.93
2018-09-01T12:23:43.633Z,9.25
2018-09-01T12:26:11.341Z,5.13
2018-09-01T12:28:38.948Z,11.00
2018-09-01T12:31:06.921Z,14.00
2018-09-01T12:33:34.645Z,9.45
2018-09-01T12:36:02.433Z,11.60
2018-09-01T12:38:30.080Z,12.13
2018-09-01T12:40:57.743Z,12.87
2018-09-01T12:43:25.463Z,8.00
2018-09-01T12:45:53.088Z,12.50
2018-09-01T12:48:20.719Z,6.87
2018-09-01T12:50:48.432Z,16.40
2018-09-01T12:53:16.639Z,8.43
2018-09-01T12:55:44.143Z,12.60
2018-09-01T12:58:11.781Z,10.50
2018-09-01T13:00:39.504Z,13.30
2018-09-01T13:03:07.211Z,10.93
2018-09-01T13:05:34.960Z,8.80
2018-09-01T13:08:02.933Z,17.23
2018-09-01T13:10:30.491Z,8.40
2018-09-01T13:12:58.244Z,15.58
2018-09-01T13:15:25.948Z,7.58
2018-09-01T13:17:53.598Z,11.83
2018-09-01T13:20:21.286Z,12.03
2018-09-01T13:22:48.933Z,10.70
2018-09-01T13:25:16.791Z,10.75
2018-09-01T13:27:44.353Z,9.30
2018-09-01T13:30:12.269Z,16.80
2018-09-01T13:32:40.062Z,12.00
2018-09-01T13:35:07.762Z,12.50
2018-09-01T13:37:35.423Z,9.63
2018-09-01T13:40:03.870Z,14.47
2018-09-01T13:42:31.461Z,16.37
2018-09-01T13:44:59.193Z,13.30
2018-09-01T13:47:26.818Z,8.80
2018-09-01T13:49:54.467Z,11.77
2018-09-01T13:52:22.167Z,12.73
2018-09-01T13:54:49.862Z,17.00
2018-09-01T13:57:17.603Z,11.50
2018-09-01T13:59:45.157Z,10.23
2018-09-01T14:02:12.776Z,8.53
2018-09-01T14:04:40.459Z,11.93
2018-09-01T14:07:08.127Z,11.40
2018-09-01T14:09:35.781Z,10.50
2018-09-01T14:12:03.406Z,19.55
2018-09-01T14:14:31.114Z,19.97
2018-09-01T14:16:58.769Z,18.37
2018-09-01T14:19:26.474Z,9.60
2018-09-01T14:21:54.084Z,11.85
2018-09-01T14:24:21.836Z,12.13
2018-09-01T14:26:49.566Z,12.93
2018-09-01T14:29:17.254Z,13.00
2018-09-01T14:31:44.964Z,12.15
2018-09-01T14:34:14.018Z,17.07
2018-09-01T14:36:41.678Z,17.90
2018-09-01T14:39:10.602Z,16.80
2018-09-01T14:41:38.270Z,11.13
2018-09-01T14:44:05.975Z,20.05
2018-09-01T14:46:33.997Z,18.75
2018-09-01T14:49:01.853Z,14.95
2018-09-01T14:51:29.496Z,18.95
2018-09-01T14:53:57.484Z,15.72
2018-09-01T14:56:25.258Z,22.45
2018-09-01T14:58:53.036Z,18.00
2018-09-01T15:01:20.709Z,20.73
2018-09-01T15:03:48.350Z,26.13
2018-09-01T15:06:16.006Z,20.10
2018-09-01T15:08:43.670Z,19.90
2018-09-01T15:11:11.314Z,18.17
2018-09-01T15:13:38.948Z,19.70
2018-09-01T15:16:07.343Z,18.43
2018-09-01T15:18:35.058Z,13.15
2018-09-01T15:21:02.737Z,21.17
2018-09-01T15:23:30.365Z,13.70
2018-09-01T15:25:58.103Z,14.60
2018-09-01T15:28:25.874Z,12.13
2018-09-01T15:30:53.625Z,15.48
2018-09-01T15:33:21.331Z,11.50
2018-09-01T15:35:49.053Z,20.80
2018-09-01T15:38:16.757Z,16.05
2018-09-01T15:40:44.374Z,14.43
2018-09-01T15:43:12.009Z,14.43
2018-09-01T15:45:39.607Z,19.63
2018-09-01T15:48:07.261Z,20.57
2018-09-01T15:50:34.951Z,16.70
2018-09-01T15:53:02.848Z,16.10
2018-09-01T15:55:30.479Z,19.60
2018-09-01T15:57:58.111Z,15.77
2018-09-01T16:00:25.721Z,19.82
2018-09-01T16:02:53.372Z,14.47
2018-09-01T16:05:21.180Z,18.70
2018-09-01T16:07:48.834Z,14.70
2018-09-01T16:10:16.580Z,15.05
2018-09-01T16:12:44.238Z,20.13
2018-09-01T16:15:12.015Z,20.07
2018-09-01T16:17:39.643Z,16.77
2018-09-01T16:20:07.321Z,13.98
2018-09-01T16:22:34.954Z,15.48
2018-09-01T16:25:02.746Z,16.90
2018-09-01T16:27:30.372Z,20.07
2018-09-01T16:29:57.981Z,17.30
2018-09-01T16:32:32.390Z,15.18
2018-09-01T16:35:00.075Z,20.03
2018-09-01T16:37:27.775Z,16.10
2018-09-01T16:39:55.482Z,14.00
2018-09-01T16:42:23.290Z,12.90
2018-09-01T16:44:51.126Z,16.90
2018-09-01T16:47:18.977Z,14.60
2018-09-01T16:49:46.616Z,12.30
2018-09-01T16:52:14.392Z,15.30
2018-09-01T16:54:42.171Z,16.80
2018-09-01T16:57:09.813Z,17.50
2018-09-01T16:59:37.446Z,23.67
2018-09-01T17:02:05.584Z,22.40
2018-09-01T17:04:33.303Z,17.05
2018-09-01T17:07:00.973Z,14.20
2018-09-01T17:09:28.734Z,18.47
2018-09-01T17:11:56.952Z,20.53
2018-09-01T17:14:24.675Z,21.60
2018-09-01T17:16:52.457Z,13.80
2018-09-01T17:19:20.101Z,16.57
2018-09-01T17:21:47.808Z,13.47
2018-09-01T17:24:15.545Z,23.55
2018-09-01T17:26:43.156Z,24.67
2018-09-01T17:29:10.893Z,17.55
2018-09-01T17:31:38.527Z,20.02
2018-09-01T17:34:06.293Z,14.77
2018-09-01T17:36:34.011Z,20.40
2018-09-01T17:39:01.726Z,22.17
2018-09-01T17:41:29.384Z,21.53
2018-09-01T17:43:57.027Z,17.60
2018-09-01T17:46:24.787Z,18.63
2018-09-01T17:48:52.502Z,24.93
2018-09-01T17:51:20.287Z,24.43
2018-09-01T17:53:48.029Z,24.20
2018-09-01T17:56:15.779Z,23.50
2018-09-01T17:58:43.730Z,25.48
2018-09-01T18:01:11.737Z,27.87
2018-09-01T18:03:39.390Z,24.53
2018-09-01T18:06:07.035Z,24.47
2018-09-01T18:08:34.775Z,23.35
2018-09-01T18:11:02.489Z,24.93
2018-09-01T18:13:30.167Z,27.00
2018-09-01T18:15:58.041Z,32.63
2018-09-01T18:18:25.911Z,25.23
2018-09-01T18:20:55.328Z,26.93
2018-09-01T18:23:24.466Z,28.57
2018-09-01T18:25:52.166Z,28.20
2018-09-01T18:28:19.948Z,25.60
2018-09-01T18:30:47.649Z,21.93
2018-09-01T18:33:15.550Z,24.18
2018-09-01T18:35:43.300Z,28.00
2018-09-01T18:38:11.021Z,27.40
2018-09-01T18:40:38.626Z,28.20
2018-09-01T18:43:06.238Z,28.73
2018-09-01T18:45:33.930Z,26.37
2018-09-01T18:48:01.582Z,31.37
2018-09-01T18:50:29.216Z,33.40
2018-09-01T18:52:56.917Z,31.13
2018-09-01T18:55:24.700Z,26.57
2018-09-01T18:57:52.979Z,34.40
2018-09-01T19:00:20.865Z,25.40
2018-09-01T19:02:48.510Z,20.33
2018-09-01T19:05:16.479Z,21.53
2018-09-01T19:07:44.129Z,23.50
2018-09-01T19:10:11.843Z,24.47
2018-09-01T19:12:39.564Z,19.15
2018-09-01T19:15:07.297Z,19.23
2018-09-01T19:17:35.029Z,22.10
2018-09-01T19:20:02.857Z,21.82
2018-09-01T19:22:30.637Z,20.43
2018-09-01T19:24:58.906Z,24.02
2018-09-01T19:27:26.665Z,16.47
2018-09-01T19:29:54.597Z,16.82
2018-09-01T19:32:23.416Z,16.50
2018-09-01T19:34:51.376Z,19.40
2018-09-01T19:37:19.143Z,18.73
2018-09-01T19:39:48.284Z,16.97
2018-09-01T19:42:16.113Z,25.93
2018-09-01T19:44:43.919Z,20.20
2018-09-01T19:47:11.567Z,21.90
2018-09-01T19:49:39.563Z,22.95
2018-09-01T19:52:07.205Z,25.95
2018-09-01T19:54:35.044Z,26.50
2018-09-01T19:57:02.988Z,19.85
2018-09-01T19:59:30.996Z,22.95
2018-09-01T20:01:58.629Z,21.33
2018-09-01T20:04:26.527Z,24.27
2018-09-01T20:06:54.274Z,22.40
2018-09-01T20:09:21.931Z,23.63
2018-09-01T20:11:49.607Z,22.57
2018-09-01T20:14:17.418Z,24.97
2018-09-01T20:16:45.206Z,25.20
2018-09-01T20:19:12.946Z,24.37
2018-09-01T20:21:40.629Z,29.30
2018-09-01T20:24:08.388Z,24.87
2018-09-01T20:26:36.094Z,20.73
2018-09-01T20:29:03.819Z,21.97
2018-09-01T20:34:26.618Z,25.47
2018-09-01T20:36:54.804Z,31.43
2018-09-01T20:39:22.533Z,24.60
2018-09-01T20:41:50.284Z,25.03
2018-09-01T20:44:18.065Z,22.98
2018-09-01T20:46:45.837Z,22.95
2018-09-01T20:49:13.490Z,24.63
2018-09-01T20:51:41.152Z,24.73
2018-09-01T20:54:08.816Z,30.80
2018-09-01T20:56:36.499Z,24.93
2018-09-01T20:59:04.240Z,25.23
2018-09-01T21:01:31.966Z,27.00
2018-09-01T21:03:59.930Z,27.10
2018-09-01T21:06:27.618Z,28.85
2018-09-01T21:08:55.611Z,24.33
2018-09-01T21:11:23.433Z,28.60
2018-09-01T21:13:51.131Z,30.87
2018-09-01T21:16:18.834Z,27.57
2018-09-01T21:18:46.471Z,29.80
2018-09-01T21:21:14.346Z,32.55
2018-09-01T21:23:42.063Z,36.60
2018-09-01T21:26:09.749Z,30.37
2018-09-01T21:28:37.473Z,29.63
2018-09-01T21:31:05.111Z,32.15
2018-09-01T21:33:33.154Z,29.23
2018-09-01T21:36:00.823Z,41.23
2018-09-01T21:38:28.544Z,34.33
2018-09-01T21:40:56.136Z,31.30
2018-09-01T21:43:23.795Z,34.23
2018-09-01T21:45:51.451Z,31.05
2018-09-01T21:48:19.235Z,38.50
2018-09-01T21:50:46.844Z,30.37
2018-09-01T21:53:14.479Z,28.00
2018-09-01T21:55:42.164Z,32.83
2018-09-01T21:58:09.753Z,36.00
2018-09-01T22:00:41.753Z,62.70
2018-09-01T22:03:09.383Z,45.00
2018-09-01T22:05:37.121Z,43.78
2018-09-01T22:08:04.771Z,35.35
2018-09-01T22:10:32.588Z,34.03
2018-09-01T22:13:00.229Z,36.93
2018-09-01T22:15:27.877Z,35.90
2018-09-01T22:17:55.482Z,38.90
2018-09-01T22:20:23.193Z,39.25
2018-09-01T22:22:50.804Z,31.70
2018-09-01T22:25:18.405Z,40.60
2018-09-01T22:27:46.066Z,36.20
2018-09-01T22:30:13.799Z,38.53
2018-09-01T22:32:41.428Z,36.90
2018-09-01T22:35:09.064Z,33.15
2018-09-01T22:37:36.764Z,38.38
2018-09-01T22:40:04.445Z,34.70
2018-09-01T22:42:32.104Z,28.57
2018-09-01T22:44:59.720Z,41.90
2018-09-01T22:47:29.032Z,34.50
2018-09-01T22:49:56.729Z,33.10
2018-09-01T22:52:24.421Z,34.47
2018-09-01T22:54:51.999Z,30.40
2018-09-01T22:57:20.101Z,29.77
2018-09-01T22:59:47.842Z,30.30
2018-09-01T23:02:15.712Z,29.03
2018-09-01T23:04:43.333Z,32.27
2018-09-01T23:07:11.019Z,33.47
2018-09-01T23:09:38.671Z,34.40
2018-09-01T23:12:06.454Z,27.98
2018-09-01T23:14:34.122Z,31.82
2018-09-01T23:17:01.742Z,31.25
2018-09-01T23:19:29.461Z,32.10
2018-09-01T23:21:57.127Z,31.37
2018-09-01T23:24:24.809Z,30.23
2018-09-01T23:26:52.519Z,32.70
2018-09-01T23:29:20.197Z,30.87
2018-09-01T23:31:47.935Z,30.53
2018-09-01T23:34:15.656Z,32.75
2018-09-01T23:36:43.275Z,33.08
2018-09-01T23:39:11.575Z,31.30
2018-09-01T23:41:39.663Z,30.40
2018-09-01T23:44:07.503Z,30.67
2018-09-01T23:46:35.373Z,36.63
2018-09-01T23:49:03.374Z,32.20
2018-09-01T23:51:31.002Z,31.17
2018-09-01T23:53:58.656Z,33.55
2018-09-01T23:56:26.390Z,31.67
2018-09-01T23:58:53.978Z,30.80
